Time;durP1;ratioP1;P1;durP2;ratioP2;P2;SDS_P1;SDS_P2;PMS_P1;PMS_P2;Temp;Humidity;BMP_temperature;BMP_pressure;BME280_temperature;BME280_humidity;BME280_pressure;Samples;Min_cycle;Max_cycle;Signal;HPM_P1;HPM_P2
2023/10/15 00:00:42;;;;;;;0.67;0.60;;;;;;;;;;6224788;28;20194;-62
2023/10/15 00:03:43;;;;;;;1.40;0.60;;;;;;;;;;6220873;28;20194;-62
2023/10/15 00:06:44;;;;;;;1.80;0.70;;;;;;;;;;6197246;28;20195;-62
2023/10/15 00:09:45;;;;;;;2.90;0.80;;;;;;;;;;6197949;28;20195;-62
2023/10/15 00:12:50;;;;;;;2.67;0.80;;;;;;;;;;6209715;28;20210;-62
2023/10/15 00:15:51;;;;;;;2.10;1.40;;;;;;;;;;6219622;28;20219;-62
2023/10/15 00:18:52;;;;;;;0.97;0.80;;;;;;;;;;6219830;28;20305;-62
2023/10/15 00:21:54;;;;;;;2.50;1.00;;;;;;;;;;6210069;28;20207;-62
2023/10/15 00:24:55;;;;;;;1.70;0.97;;;;;;;;;;6217735;28;20265;-62
2023/10/15 00:27:57;;;;;;;3.67;0.80;;;;;;;;;;6222398;28;20269;-62
2023/10/15 00:31:00;;;;;;;1.13;0.90;;;;;;;;;;6199774;28;20238;-62
2023/10/15 00:34:03;;;;;;;1.07;0.97;;;;;;;;;;6197663;28;20203;-62
2023/10/15 00:40:45;;;;;;;1.03;0.80;;;;;;;;;;6233096;28;20188;-62
2023/10/15 00:43:51;;;;;;;0.70;0.70;;;;;;;;;;6238613;28;20183;-62
2023/10/15 00:46:54;;;;;;;2.10;0.77;;;;;;;;;;6222093;28;20196;-62
2023/10/15 00:49:56;;;;;;;1.23;0.67;;;;;;;;;;6210923;28;20248;-62
2023/10/15 00:52:57;;;;;;;0.67;0.67;;;;;;;;;;6208929;28;20206;-62
2023/10/15 00:56:05;;;;;;;0.70;0.70;;;;;;;;;;6205844;28;20202;-62
2023/10/15 01:02:07;;;;;;;0.50;0.50;;;;;;;;;;6237214;28;20195;-62
2023/10/15 01:05:09;;;;;;;0.70;0.60;;;;;;;;;;6217860;28;20221;-62
2023/10/15 01:08:10;;;;;;;0.60;0.60;;;;;;;;;;6229714;28;20190;-62
2023/10/15 01:11:11;;;;;;;1.77;0.60;;;;;;;;;;6202954;28;20194;-62
2023/10/15 01:14:25;;;;;;;0.40;0.40;;;;;;;;;;6230121;28;20314;-62
2023/10/15 01:17:27;;;;;;;1.10;0.60;;;;;;;;;;6212212;28;20219;-62
2023/10/15 01:20:30;;;;;;;0.60;0.60;;;;;;;;;;6228685;28;20187;-62
2023/10/15 01:23:36;;;;;;;3.07;0.67;;;;;;;;;;6208199;28;20199;-62
2023/10/15 01:26:39;;;;;;;0.50;0.50;;;;;;;;;;6201866;28;20273;-62
2023/10/15 01:29:42;;;;;;;1.67;0.60;;;;;;;;;;6209249;28;20187;-63
2023/10/15 01:32:44;;;;;;;2.10;0.77;;;;;;;;;;6214010;28;20182;-62
2023/10/15 01:35:45;;;;;;;1.33;0.57;;;;;;;;;;6225308;28;20179;-62
2023/10/15 01:38:54;;;;;;;0.70;0.70;;;;;;;;;;6213398;28;20241;-62
2023/10/15 01:42:03;;;;;;;0.50;0.50;;;;;;;;;;6229875;28;20213;-62
2023/10/15 01:48:47;;;;;;;0.83;0.47;;;;;;;;;;6231218;28;20215;-62
2023/10/15 01:51:41;;;;;;;0.70;0.70;;;;;;;;;;6230778;28;20199;-62
2023/10/15 01:54:45;;;;;;;1.70;0.60;;;;;;;;;;6206012;28;20200;-62
2023/10/15 01:57:46;;;;;;;0.50;0.47;;;;;;;;;;6206860;28;20211;-62
2023/10/15 02:00:50;;;;;;;1.07;0.50;;;;;;;;;;6216388;28;20289;-62
2023/10/15 02:03:51;;;;;;;1.57;0.70;;;;;;;;;;6208658;28;20187;-62
2023/10/15 02:06:53;;;;;;;1.03;0.70;;;;;;;;;;6211512;28;20190;-62
2023/10/15 02:09:54;;;;;;;0.87;0.67;;;;;;;;;;6210566;28;20205;-62
2023/10/15 02:13:04;;;;;;;1.13;0.40;;;;;;;;;;6214962;28;20181;-63
2023/10/15 02:16:15;;;;;;;0.83;0.60;;;;;;;;;;6202082;28;20198;-63
2023/10/15 02:19:28;;;;;;;1.33;0.73;;;;;;;;;;6207829;28;20307;-62
2023/10/15 02:22:31;;;;;;;0.50;0.50;;;;;;;;;;6206864;28;20222;-62
2023/10/15 02:25:36;;;;;;;1.67;0.87;;;;;;;;;;6195917;28;20239;-63
2023/10/15 02:28:39;;;;;;;0.73;0.60;;;;;;;;;;6215583;28;20195;-62
2023/10/15 02:31:46;;;;;;;0.57;0.57;;;;;;;;;;6210431;28;20188;-62
2023/10/15 02:34:51;;;;;;;0.63;0.63;;;;;;;;;;6201428;28;20187;-62
2023/10/15 02:37:52;;;;;;;0.93;0.60;;;;;;;;;;6216442;28;20262;-62
2023/10/15 02:44:12;;;;;;;0.47;0.47;;;;;;;;;;6215210;28;20240;-62
2023/10/15 02:47:31;;;;;;;0.67;0.50;;;;;;;;;;6205016;28;20290;-62
2023/10/15 02:50:33;;;;;;;0.50;0.43;;;;;;;;;;6209488;28;20203;-63
2023/10/15 02:53:39;;;;;;;2.10;0.57;;;;;;;;;;6202413;28;20201;-63
2023/10/15 02:56:41;;;;;;;1.17;0.50;;;;;;;;;;6230194;28;20195;-62
2023/10/15 02:59:50;;;;;;;0.87;0.60;;;;;;;;;;6211303;28;20201;-63
2023/10/15 03:02:52;;;;;;;0.60;0.60;;;;;;;;;;6213737;28;20195;-62
2023/10/15 03:05:57;;;;;;;0.60;0.60;;;;;;;;;;6207116;28;20258;-62
2023/10/15 03:08:59;;;;;;;0.90;0.60;;;;;;;;;;6213251;28;20195;-62
2023/10/15 03:12:04;;;;;;;0.60;0.60;;;;;;;;;;6213357;28;20202;-62
2023/10/15 03:15:07;;;;;;;0.70;0.70;;;;;;;;;;6221368;28;20191;-63
2023/10/15 03:18:14;;;;;;;1.27;0.70;;;;;;;;;;6203548;28;20238;-62
2023/10/15 03:21:26;;;;;;;1.90;0.60;;;;;;;;;;6208657;28;20313;-62
2023/10/15 03:24:32;;;;;;;0.73;0.60;;;;;;;;;;6231458;28;20231;-62
2023/10/15 03:27:33;;;;;;;0.80;0.80;;;;;;;;;;6208820;28;20191;-62
2023/10/15 03:30:34;;;;;;;0.80;0.80;;;;;;;;;;6208085;28;20198;-62
2023/10/15 03:33:36;;;;;;;3.43;1.30;;;;;;;;;;6213408;28;20222;-62
2023/10/15 03:36:50;;;;;;;5.23;1.20;;;;;;;;;;6206808;28;20195;-62
2023/10/15 03:39:54;;;;;;;3.07;1.10;;;;;;;;;;6207455;28;20279;-62
2023/10/15 03:43:01;;;;;;;3.53;1.17;;;;;;;;;;6217836;28;20187;-62
2023/10/15 03:46:17;;;;;;;2.10;1.10;;;;;;;;;;6208632;28;20199;-62
2023/10/15 03:49:27;;;;;;;2.20;1.07;;;;;;;;;;6233639;28;20241;-62
2023/10/15 03:52:28;;;;;;;2.20;1.37;;;;;;;;;;6207651;28;20192;-62
2023/10/15 03:55:30;;;;;;;3.60;1.33;;;;;;;;;;6230031;28;20205;-62
2023/10/15 03:58:31;;;;;;;2.87;1.20;;;;;;;;;;6223307;28;20278;-62
2023/10/15 04:01:37;;;;;;;2.53;1.30;;;;;;;;;;6228455;28;20207;-62
2023/10/15 04:04:38;;;;;;;5.40;1.57;;;;;;;;;;6207597;28;20203;-62
2023/10/15 04:07:48;;;;;;;2.97;1.00;;;;;;;;;;6224494;28;20201;-67
2023/10/15 04:10:56;;;;;;;3.27;1.30;;;;;;;;;;6212754;28;20208;-64
2023/10/15 04:13:58;;;;;;;3.87;1.00;;;;;;;;;;6236946;28;20191;-64
2023/10/15 04:17:06;;;;;;;1.47;1.07;;;;;;;;;;6226832;28;20210;-64
2023/10/15 04:20:07;;;;;;;3.20;1.40;;;;;;;;;;6203465;28;20196;-64
2023/10/15 04:23:30;;;;;;;3.50;1.47;;;;;;;;;;6212946;28;20233;-63
2023/10/15 04:26:32;;;;;;;3.07;1.50;;;;;;;;;;6209235;28;20232;-64
2023/10/15 04:29:43;;;;;;;2.53;1.30;;;;;;;;;;6206689;28;20282;-66
2023/10/15 04:32:45;;;;;;;1.63;1.40;;;;;;;;;;6198489;28;20199;-67
2023/10/15 04:35:49;;;;;;;2.50;1.20;;;;;;;;;;6203609;28;20190;-67
2023/10/15 04:39:08;;;;;;;2.03;1.50;;;;;;;;;;6216267;28;20219;-68
2023/10/15 04:42:13;;;;;;;3.40;1.63;;;;;;;;;;6226235;28;20235;-67
2023/10/15 04:48:36;;;;;;;4.80;1.23;;;;;;;;;;6236811;28;20180;-62
2023/10/15 04:51:43;;;;;;;2.07;1.87;;;;;;;;;;6208546;28;20205;-61
2023/10/15 04:54:44;;;;;;;2.13;1.03;;;;;;;;;;6209307;28;20195;-62
2023/10/15 04:57:46;;;;;;;1.13;1.07;;;;;;;;;;6231829;28;20216;-62
2023/10/15 05:00:48;;;;;;;1.60;1.00;;;;;;;;;;6213955;28;20187;-63
2023/10/15 05:03:49;;;;;;;2.47;1.20;;;;;;;;;;6208567;28;20203;-62
2023/10/15 05:06:50;;;;;;;1.67;1.20;;;;;;;;;;6207757;28;20194;-63
2023/10/15 05:09:51;;;;;;;1.53;1.43;;;;;;;;;;6215857;28;20221;-63
2023/10/15 05:12:52;;;;;;;2.73;1.30;;;;;;;;;;6207054;28;20268;-64
2023/10/15 05:15:56;;;;;;;1.97;1.33;;;;;;;;;;6219551;28;20194;-64
2023/10/15 05:18:59;;;;;;;2.70;1.33;;;;;;;;;;6231888;28;20217;-64
2023/10/15 05:22:00;;;;;;;3.73;1.77;;;;;;;;;;6216415;28;20274;-65
2023/10/15 05:25:01;;;;;;;4.23;1.60;;;;;;;;;;6211730;28;20392;-65
2023/10/15 05:28:02;;;;;;;1.70;1.40;;;;;;;;;;6197758;28;20266;-65
2023/10/15 05:31:03;;;;;;;1.33;1.23;;;;;;;;;;6213320;28;20282;-63
2023/10/15 05:34:04;;;;;;;3.67;1.53;;;;;;;;;;6209334;28;20219;-63
2023/10/15 05:37:06;;;;;;;3.23;1.43;;;;;;;;;;6209806;28;20268;-63
2023/10/15 05:40:08;;;;;;;2.57;1.10;;;;;;;;;;6219747;28;20191;-63
2023/10/15 05:43:09;;;;;;;1.80;1.13;;;;;;;;;;6215379;28;20252;-64
2023/10/15 05:46:22;;;;;;;2.40;1.20;;;;;;;;;;6196909;28;20190;-64
2023/10/15 05:49:23;;;;;;;1.60;1.30;;;;;;;;;;6207086;28;20219;-64
2023/10/15 05:52:25;;;;;;;3.20;1.20;;;;;;;;;;6206164;28;20191;-63
2023/10/15 05:55:26;;;;;;;2.63;1.23;;;;;;;;;;6208681;28;20282;-62
2023/10/15 05:58:27;;;;;;;1.47;1.30;;;;;;;;;;6209708;28;20215;-63
2023/10/15 06:01:29;;;;;;;1.97;1.00;;;;;;;;;;6203359;28;20248;-64
2023/10/15 06:04:30;;;;;;;1.43;1.10;;;;;;;;;;6212465;28;20194;-63
2023/10/15 06:07:32;;;;;;;1.70;1.30;;;;;;;;;;6211483;28;20202;-63
2023/10/15 06:10:33;;;;;;;1.93;1.50;;;;;;;;;;6227690;28;20184;-63
2023/10/15 06:13:34;;;;;;;1.53;1.43;;;;;;;;;;6209006;28;20244;-63
2023/10/15 06:16:37;;;;;;;2.10;1.17;;;;;;;;;;6204631;28;20202;-63
2023/10/15 06:19:38;;;;;;;1.33;1.07;;;;;;;;;;6226415;28;20229;-63
2023/10/15 06:22:40;;;;;;;1.60;1.27;;;;;;;;;;6209695;28;20194;-63
2023/10/15 06:25:42;;;;;;;1.60;1.50;;;;;;;;;;6214720;28;20230;-63
2023/10/15 06:28:43;;;;;;;2.00;1.80;;;;;;;;;;6202176;28;20237;-62
2023/10/15 06:31:44;;;;;;;3.07;2.10;;;;;;;;;;6205503;28;20221;-62
2023/10/15 06:34:45;;;;;;;2.67;2.47;;;;;;;;;;6247370;28;20186;-62
2023/10/15 06:37:47;;;;;;;3.20;2.90;;;;;;;;;;6212217;28;20294;-63
2023/10/15 06:40:48;;;;;;;3.73;2.37;;;;;;;;;;6221407;28;20190;-63
2023/10/15 06:43:49;;;;;;;7.33;2.77;;;;;;;;;;6204942;28;20190;-62
2023/10/15 06:46:50;;;;;;;4.23;1.90;;;;;;;;;;6200083;28;20190;-63
2023/10/15 06:49:53;;;;;;;2.57;1.80;;;;;;;;;;6216324;28;20185;-67
2023/10/15 06:52:55;;;;;;;2.40;1.33;;;;;;;;;;6211500;28;20180;-66
2023/10/15 06:55:56;;;;;;;1.67;1.40;;;;;;;;;;6228931;28;20247;-66
2023/10/15 06:58:57;;;;;;;1.50;1.20;;;;;;;;;;6214690;28;20214;-63
2023/10/15 07:01:58;;;;;;;1.80;1.67;;;;;;;;;;6224370;28;20185;-63
2023/10/15 07:05:00;;;;;;;3.00;1.57;;;;;;;;;;6216533;28;20287;-61
2023/10/15 07:08:01;;;;;;;1.87;1.40;;;;;;;;;;6225347;28;20217;-61
2023/10/15 07:11:05;;;;;;;2.93;2.23;;;;;;;;;;6212031;28;20197;-63
2023/10/15 07:14:06;;;;;;;2.90;1.90;;;;;;;;;;6229598;28;20278;-63
2023/10/15 07:17:07;;;;;;;2.33;2.13;;;;;;;;;;6221834;28;20267;-63
2023/10/15 07:20:14;;;;;;;3.07;2.30;;;;;;;;;;6218281;28;20191;-63
2023/10/15 07:23:15;;;;;;;7.13;2.90;;;;;;;;;;6230390;28;20214;-63
2023/10/15 07:26:16;;;;;;;2.77;2.57;;;;;;;;;;6200305;28;20262;-64
2023/10/15 07:29:18;;;;;;;4.93;2.80;;;;;;;;;;6211881;28;20190;-62
2023/10/15 07:32:20;;;;;;;5.00;3.27;;;;;;;;;;6207856;28;20215;-64
2023/10/15 07:35:21;;;;;;;3.60;2.63;;;;;;;;;;6208411;28;20250;-63
2023/10/15 07:38:22;;;;;;;5.30;2.30;;;;;;;;;;6216088;28;20223;-64
2023/10/15 07:41:23;;;;;;;4.63;3.50;;;;;;;;;;6210027;28;20278;-62
2023/10/15 07:44:24;;;;;;;3.20;2.90;;;12.30;99.90;;;;;;6210291;28;20186;-63
2023/10/15 07:47:25;;;;;;;5.67;3.57;;;11.90;99.90;;;;;;6208101;28;20213;-63
2023/10/15 07:50:27;;;;;;;7.60;3.70;;;11.90;99.90;;;;;;6200301;28;20308;-61
2023/10/15 07:53:27;;;;;;;4.83;3.90;;;11.90;99.90;;;;;;6207674;28;20199;-63
2023/10/15 07:56:28;;;;;;;6.00;3.70;;;;;;;;;;6224828;28;20190;-62
2023/10/15 07:59:29;;;;;;;7.13;3.73;;;;;;;;;;6207757;28;20218;-63
2023/10/15 08:02:30;;;;;;;5.43;3.80;;;;;;;;;;6209885;28;20195;-63
2023/10/15 08:05:32;;;;;;;3.83;3.37;;;;;;;;;;6227346;28;20191;-63
2023/10/15 08:08:33;;;;;;;6.77;4.37;;;;;;;;;;6211062;28;20200;-63
2023/10/15 08:11:34;;;;;;;5.70;4.33;;;;;;;;;;6210845;28;20204;-63
2023/10/15 08:14:35;;;;;;;6.57;4.20;;;;;;;;;;6216742;28;20332;-63
2023/10/15 08:17:36;;;;;;;7.53;4.10;;;;;;;;;;6211089;28;20221;-63
2023/10/15 08:20:37;;;;;;;6.23;4.20;;;;;;;;;;6207797;28;20183;-63
2023/10/15 08:23:38;;;;;;;7.13;5.80;;;;;;;;;;6209826;28;20196;-62
2023/10/15 08:26:40;;;;;;;8.73;5.07;;;;;;;;;;6213154;28;20242;-62
2023/10/15 08:29:41;;;;;;;8.20;5.17;;;;;;;;;;6214874;28;20267;-62
2023/10/15 08:32:46;;;;;;;7.83;4.93;;;;;;;;;;6222363;28;20187;-62
2023/10/15 08:35:48;;;;;;;6.57;4.87;;;;;;;;;;6220259;28;20190;-62
2023/10/15 08:38:49;;;;;;;9.77;5.17;;;;;;;;;;6226775;28;20203;-62
2023/10/15 08:41:54;;;;;;;9.67;5.70;;;;;;;;;;6207412;28;20277;-62
2023/10/15 08:44:57;;;;;;;6.77;4.97;;;;;;;;;;6232960;28;20183;-62
2023/10/15 08:48:00;;;;;;;11.87;5.53;;;;;;;;;;6233237;28;20285;-62
2023/10/15 08:51:01;;;;;;;7.67;5.37;;;;;;;;;;6205846;28;20191;-63
2023/10/15 08:54:04;;;;;;;10.53;6.30;;;;;;;;;;6210123;28;20202;-61
2023/10/15 08:57:08;;;;;;;7.00;5.50;;;;;;;;;;6231263;28;20182;-63
2023/10/15 09:00:25;;;;;;;7.90;5.17;;;;;;;;;;6230278;28;20187;-62
2023/10/15 09:03:26;;;;;;;9.27;5.60;;;;;;;;;;6214741;28;20263;-62
2023/10/15 09:06:28;;;;;;;9.83;6.03;;;;;;;;;;6209805;28;20278;-62
2023/10/15 09:09:30;;;;;;;6.27;5.60;;;;;;;;;;6211607;28;20217;-62
2023/10/15 09:12:34;;;;;;;8.70;5.13;;;;;;;;;;6225499;28;20221;-63
2023/10/15 09:15:38;;;;;;;6.93;5.00;;;;;;;;;;6212890;28;20210;-63
2023/10/15 09:18:39;;;;;;;7.10;4.93;;;;;;;;;;6232115;28;20301;-62
2023/10/15 09:21:41;;;;;;;8.17;5.37;;;;;;;;;;6207510;28;20199;-63
2023/10/15 09:24:42;;;;;;;6.93;6.00;;;;;;;;;;6204524;28;20249;-63
2023/10/15 09:27:47;;;;;;;8.10;5.03;;;;;;;;;;6212904;28;20203;-63
2023/10/15 09:30:49;;;;;;;7.60;5.53;;;;;;;;;;6206285;28;20293;-62
2023/10/15 09:33:54;;;;;;;11.40;6.40;;;;;;;;;;6233233;28;20194;-62
2023/10/15 09:36:58;;;;;;;8.17;5.27;;;;;;;;;;6203052;28;20196;-62
2023/10/15 09:39:59;;;;;;;9.73;6.27;;;;;;;;;;6230084;28;20195;-62
2023/10/15 09:43:00;;;;;;;9.93;6.90;;;;;;;;;;6210749;28;20196;-62
2023/10/15 09:46:03;;;;;;;9.10;5.67;;;;;;;;;;6223249;28;20194;-61
2023/10/15 09:49:04;;;;;;;7.97;6.43;;;;;;;;;;6211906;28;20237;-61
2023/10/15 09:52:06;;;;;;;9.80;6.53;;;;;;;;;;6203580;28;20214;-61
2023/10/15 09:55:11;;;;;;;10.80;6.73;;;;;;;;;;6226452;28;20230;-61
2023/10/15 09:58:12;;;;;;;11.27;6.40;;;;;;;;;;6209639;28;20297;-61
2023/10/15 10:01:28;;;;;;;7.13;6.13;;;;;;;;;;6217527;28;20194;-61
2023/10/15 10:04:52;;;;;;;9.50;5.00;;;;;;;;;;6231157;28;20199;-61
2023/10/15 10:08:13;;;;;;;6.70;6.00;;;;;;;;;;6230149;28;20211;-61
2023/10/15 10:11:18;;;;;;;6.47;5.10;;;;;;;;;;6228157;28;20194;-61
2023/10/15 10:14:32;;;;;;;6.67;5.60;;;;;;;;;;6229745;28;20230;-61
2023/10/15 10:17:33;;;;;;;6.27;5.00;;;;;;;;;;6225944;28;20218;-61
2023/10/15 10:20:37;;;;;;;7.53;4.10;;;;;;;;;;6224725;28;20202;-62
2023/10/15 10:23:38;;;;;;;6.80;4.07;;;;;;;;;;6217031;28;20188;-63
2023/10/15 10:26:40;;;;;;;5.73;4.80;;;;;;;;;;6196255;28;20250;-63
2023/10/15 10:29:43;;;;;;;5.90;3.93;;;;;;;;;;6209239;28;20233;-62
2023/10/15 10:32:44;;;;;;;6.37;3.47;;;;;;;;;;6231056;28;20201;-63
2023/10/15 10:35:45;;;;;;;5.03;3.23;;;;;;;;;;6221929;28;20203;-63
2023/10/15 10:39:10;;;;;;;5.20;3.30;;;;;;;;;;6205753;28;20221;-63
2023/10/15 10:42:23;;;;;;;5.13;3.60;;;;;;;;;;6224333;28;20230;-63
2023/10/15 10:45:43;;;;;;;6.00;3.57;;;;;;;;;;6223954;28;20191;-63
2023/10/15 10:48:44;;;;;;;4.67;4.20;;;;;;;;;;6218268;28;20231;-63
2023/10/15 10:52:05;;;;;;;5.53;5.00;;;;;;;;;;6203175;28;20187;-63
2023/10/15 10:55:25;;;;;;;6.53;4.50;;;;;;;;;;6229563;28;20198;-62
2023/10/15 10:58:29;;;;;;;4.90;4.20;;;;;;;;;;6225486;28;20212;-62
2023/10/15 11:01:33;;;;;;;6.53;4.30;;;;;;;;;;6221895;28;20198;-62
2023/10/15 11:04:34;;;;;;;5.63;5.00;;;;;;;;;;6234875;28;20215;-62
2023/10/15 11:07:36;;;;;;;5.37;4.57;;;;;;;;;;6203424;28;20214;-62
2023/10/15 11:10:37;;;;;;;9.30;5.33;;;;;;;;;;6221383;28;20241;-63
2023/10/15 11:13:38;;;;;;;5.97;4.37;;;;;;;;;;6211369;28;20230;-66
2023/10/15 11:16:42;;;;;;;4.87;4.30;;;;;;;;;;6216298;28;20221;-66
2023/10/15 11:19:43;;;;;;;5.77;4.17;;;;;;;;;;6201892;28;20215;-67
2023/10/15 11:22:44;;;;;;;4.87;3.90;;;;;;;;;;6206290;28;20249;-67
2023/10/15 11:25:46;;;;;;;5.80;3.50;;;;;;;;;;6194926;28;20330;-67
2023/10/15 11:28:47;;;;;;;3.27;2.30;;;;;;;;;;6203424;28;20221;-66
2023/10/15 11:31:49;;;;;;;2.33;2.13;;;;;;;;;;6200931;28;20248;-64
2023/10/15 11:34:50;;;;;;;2.57;2.20;;;;;;;;;;6239950;28;20188;-66
2023/10/15 11:37:51;;;;;;;3.33;2.03;;;;;;;;;;6207293;28;20222;-66
2023/10/15 11:40:54;;;;;;;3.97;2.00;;;;;;;;;;6209680;28;20214;-65
2023/10/15 11:43:55;;;;;;;3.27;2.30;;;;;;;;;;6207988;28;20188;-66
2023/10/15 11:46:57;;;;;;;2.20;2.00;;;;;;;;;;6207010;28;20194;-65
2023/10/15 11:49:59;;;;;;;5.03;2.10;;;;;;;;;;6209250;28;20195;-65
2023/10/15 11:53:00;;;;;;;3.43;2.20;;;;;;;;;;6205868;28;20229;-65
2023/10/15 11:56:02;;;;;;;2.90;1.70;;;;;;;;;;6216880;28;20222;-64
2023/10/15 11:59:04;;;;;;;3.23;2.00;;;;;;;;;;6232575;28;20214;-64
2023/10/15 12:02:05;;;;;;;2.37;1.87;;;;;;;;;;6220717;28;20194;-66
2023/10/15 12:05:09;;;;;;;2.93;1.70;;;;;;;;;;6210402;28;20187;-65
2023/10/15 12:08:12;;;;;;;2.87;2.17;;;;;;;;;;6206542;28;20198;-67
2023/10/15 12:11:14;;;;;;;2.57;1.80;;;;;;;;;;6214555;28;20205;-66
2023/10/15 12:14:17;;;;;;;2.77;2.17;;;;;;;;;;6221992;28;20199;-64
2023/10/15 12:17:18;;;;;;;3.83;2.60;;;;;;;;;;6216231;28;20215;-62
2023/10/15 12:20:19;;;;;;;4.40;2.23;;;;;;;;;;6206419;28;20188;-62
2023/10/15 12:23:20;;;;;;;2.07;1.80;;;;;;;;;;6207659;28;20202;-62
2023/10/15 12:26:21;;;;;;;3.13;2.47;;;;;;;;;;6215592;28;20242;-64
2023/10/15 12:29:28;;;;;;;5.07;2.53;;;;;;;;;;6212069;28;20222;-64
2023/10/15 12:32:29;;;;;;;4.57;2.73;;;;;;;;;;6234015;28;20196;-62
2023/10/15 12:35:31;;;;;;;4.23;2.37;;;;;;;;;;6220362;28;20459;-62
2023/10/15 12:38:32;;;;;;;4.00;2.40;;;;;;;;;;6210804;28;20221;-63
2023/10/15 12:41:38;;;;;;;3.70;2.70;;;;;;;;;;6221248;28;20194;-62
2023/10/15 12:44:40;;;;;;;14.20;3.17;;;;;;;;;;6228701;28;20270;-65
2023/10/15 12:47:41;;;;;;;8.50;3.23;;;;;;;;;;6193255;28;20282;-62
2023/10/15 12:50:42;;;;;;;3.53;2.70;;;;;;;;;;6209842;28;20202;-62
2023/10/15 12:53:43;;;;;;;5.53;3.50;;;;;;;;;;6214494;28;20194;-62
2023/10/15 12:56:45;;;;;;;4.73;3.33;;;;;;;;;;6231264;28;20199;-62
2023/10/15 12:59:46;;;;;;;8.07;3.17;;;;;;;;;;6224460;28;20261;-62
2023/10/15 13:02:51;;;;;;;5.93;2.80;;;;;;;;;;6215311;28;20198;-61
2023/10/15 13:05:52;;;;;;;6.53;3.00;;;;;;;;;;6227612;28;20221;-62
2023/10/15 13:08:55;;;;;;;8.57;3.60;;;;;;;;;;6220413;28;20249;-62
2023/10/15 13:11:57;;;;;;;4.60;3.30;;;;;;;;;;6208462;28;20225;-64
2023/10/15 13:14:58;;;;;;;8.53;3.70;;;;;;;;;;6220542;28;20194;-64
2023/10/15 13:17:59;;;;;;;4.67;4.23;;;;;;;;;;6230862;28;20234;-63
2023/10/15 13:21:00;;;;;;;6.27;3.47;;;;;;;;;;6227856;28;20198;-62
2023/10/15 13:24:02;;;;;;;5.30;3.80;;;;;;;;;;6211287;28;20202;-61
2023/10/15 13:27:05;;;;;;;8.17;4.60;;;;;;;;;;6216968;28;20191;-66
2023/10/15 13:30:09;;;;;;;4.53;4.10;;;;;;;;;;6248953;28;20186;-62
2023/10/15 13:33:11;;;;;;;7.10;4.50;;;;;;;;;;6233035;28;20331;-62
2023/10/15 13:36:13;;;;;;;8.07;3.90;;;;;;;;;;6215944;28;20187;-63
2023/10/15 13:39:22;;;;;;;5.87;3.57;;;;;;;;;;6208126;28;20219;-63
2023/10/15 13:42:23;;;;;;;5.00;3.53;;;;;;;;;;6208380;28;20286;-63
2023/10/15 13:45:25;;;;;;;7.97;3.53;;;;;;;;;;6200463;28;20194;-64
2023/10/15 13:48:26;;;;;;;5.90;3.20;;;;;;;;;;6215662;28;20195;-64
2023/10/15 13:51:28;;;;;;;6.43;3.60;;;;;;;;;;6215465;28;20218;-64
2023/10/15 13:54:29;;;;;;;5.97;4.40;;;;;;;;;;6204740;28;20201;-62
2023/10/15 13:57:31;;;;;;;5.73;3.40;;;;;;;;;;6207188;28;20226;-63
2023/10/15 14:00:35;;;;;;;7.37;3.80;;;;;;;;;;6212003;28;20256;-62
2023/10/15 14:03:38;;;;;;;8.30;3.37;;;;;;;;;;6248824;28;20183;-63
2023/10/15 14:06:39;;;;;;;5.00;3.27;;;;;;;;;;6224705;28;20245;-64
2023/10/15 14:09:40;;;;;;;4.63;3.90;;;;;;;;;;6248405;28;20175;-64
2023/10/15 14:12:41;;;;;;;7.23;4.47;;;;;;;;;;6233563;28;20189;-63
2023/10/15 14:15:43;;;;;;;6.27;3.73;;;;;;;;;;6249878;28;20194;-64
2023/10/15 14:18:44;;;;;;;5.17;3.33;;;;;;;;;;6215927;28;20214;-64
2023/10/15 14:21:45;;;;;;;6.07;3.10;;;;;;;;;;6232203;28;20194;-63
2023/10/15 14:24:49;;;;;;;5.80;3.40;;;;;;;;;;6212953;28;20288;-63
2023/10/15 14:27:51;;;;;;;6.70;3.30;;;;;;;;;;6223913;28;20195;-62
2023/10/15 14:30:53;;;;;;;6.00;3.30;;;;;;;;;;6211888;28;20194;-63
2023/10/15 14:33:54;;;;;;;4.83;2.97;;;;;;;;;;6231016;28;20199;-64
2023/10/15 14:36:57;;;;;;;5.33;3.03;;;;;;;;;;6231999;28;20206;-64
2023/10/15 14:40:00;;;;;;;4.40;3.43;;;;;;;;;;6211275;28;20218;-63
2023/10/15 14:43:01;;;;;;;3.00;2.70;;;;;;;;;;6204083;28;20191;-63
2023/10/15 14:46:03;;;;;;;4.57;2.40;;;;;;;;;;6213567;28;20192;-64
2023/10/15 14:49:04;;;;;;;5.80;3.03;;;;;;;;;;6208510;28;20206;-62
2023/10/15 14:52:06;;;;;;;3.73;2.73;;;;;;;;;;6215726;28;20194;-63
2023/10/15 14:55:08;;;;;;;5.20;2.87;;;;;;;;;;6208306;28;20202;-63
2023/10/15 14:58:09;;;;;;;4.20;2.60;;;;;;;;;;6207703;28;20250;-63
2023/10/15 15:01:11;;;;;;;5.93;3.40;;;;;;;;;;6213844;28;20201;-62
2023/10/15 15:04:14;;;;;;;4.90;3.03;;;;;;;;;;6216270;28;20203;-62
2023/10/15 15:07:15;;;;;;;4.60;3.50;;;;;;;;;;6203643;28;20215;-63
2023/10/15 15:10:17;;;;;;;5.73;3.93;;;;;;;;;;6210526;28;20287;-63
2023/10/15 15:13:18;;;;;;;7.10;4.87;;;;;;;;;;6227063;28;20193;-63
2023/10/15 15:16:19;;;;;;;6.17;3.73;;;;;;;;;;6221666;28;20194;-63
2023/10/15 15:19:21;;;;;;;4.77;3.50;;;;;;;;;;6208649;28;20221;-63
2023/10/15 15:22:22;;;;;;;5.40;3.27;;;;;;;;;;6211020;28;20206;-63
2023/10/15 15:25:26;;;;;;;4.43;3.27;;;;;;;;;;6199850;28;20286;-63
2023/10/15 15:28:27;;;;;;;3.87;3.00;;;;;;;;;;6202770;28;20286;-62
2023/10/15 15:31:29;;;;;;;5.53;3.47;;;;;;;;;;6217190;28;20202;-64
2023/10/15 15:34:30;;;;;;;6.50;4.00;;;;;;;;;;6197335;28;20210;-62
2023/10/15 15:37:32;;;;;;;7.67;4.50;;;;;;;;;;6207188;28;20222;-62
2023/10/15 15:40:34;;;;;;;4.17;3.77;;;;;;;;;;6207393;28;20203;-63
2023/10/15 15:43:35;;;;;;;7.33;4.30;;;;;;;;;;6209967;28;20259;-63
2023/10/15 15:46:37;;;;;;;4.30;3.30;;;;;;;;;;6199266;28;20214;-64
2023/10/15 15:49:40;;;;;;;6.77;4.37;;;;;;;;;;6203381;28;20232;-63
2023/10/15 15:52:43;;;;;;;8.23;4.60;;;;;;;;;;6200982;28;20263;-66
2023/10/15 15:55:45;;;;;;;7.27;4.23;;;;;;;;;;6190930;28;20201;-64
2023/10/15 15:58:46;;;;;;;7.17;4.27;;;;;;;;;;6211145;28;20215;-64
2023/10/15 16:01:50;;;;;;;6.07;4.90;;;;;;;;;;6220596;28;20218;-64
2023/10/15 16:04:51;;;;;;;5.83;4.33;;;;;;;;;;6206770;28;20198;-63
2023/10/15 16:07:58;;;;;;;11.00;5.57;;;;;;;;;;6195597;28;20198;-63
2023/10/15 16:10:59;;;;;;;14.50;9.40;;;;;;;;;;6226568;28;20195;-63
2023/10/15 16:14:00;;;;;;;8.30;6.53;;;;;;;;;;6213511;28;20223;-63
2023/10/15 16:17:03;;;;;;;11.30;6.80;;;;;;;;;;6200503;28;20200;-62
2023/10/15 16:20:08;;;;;;;16.20;12.70;;;;;;;;;;6205142;28;20219;-65
2023/10/15 16:23:09;;;;;;;25.57;16.20;;;;;;;;;;6191931;28;20188;-65
2023/10/15 16:26:11;;;;;;;32.77;23.17;;;;;;;;;;6205453;28;20330;-64
2023/10/15 16:29:12;;;;;;;22.40;18.30;;;;;;;;;;6206345;28;20199;-62
2023/10/15 16:32:14;;;;;;;16.73;13.57;;;;;;;;;;6205976;28;20195;-62
2023/10/15 16:35:16;;;;;;;15.30;11.50;;;;;;;;;;6202988;28;20204;-63
2023/10/15 16:38:17;;;;;;;12.30;9.83;;;;;;;;;;6199751;28;20219;-62
2023/10/15 16:41:19;;;;;;;10.13;7.30;;;;;;;;;;6205651;28;20214;-62
2023/10/15 16:44:20;;;;;;;9.47;7.30;;;;;;;;;;6193591;28;20249;-62
2023/10/15 16:47:22;;;;;;;9.67;8.67;;;;;;;;;;6193514;28;20227;-62
2023/10/15 16:50:24;;;;;;;10.37;7.77;;;;;;;;;;6205822;28;20180;-62
2023/10/15 16:53:26;;;;;;;10.90;6.47;;;;;;;;;;6201626;28;20273;-62
2023/10/15 16:56:27;;;;;;;10.23;6.40;;;;;;;;;;6204249;28;20195;-61
2023/10/15 16:59:29;;;;;;;7.33;5.93;;;;;;;;;;6211194;28;20207;-61
2023/10/15 17:02:30;;;;;;;6.30;5.70;;;;;;;;;;6186479;28;20194;-62
2023/10/15 17:05:32;;;;;;;11.10;7.20;;;;;;;;;;6201808;28;20218;-62
2023/10/15 17:08:33;;;;;;;9.23;6.43;;;;;;;;;;6196789;28;20290;-62
2023/10/15 17:11:36;;;;;;;10.37;6.63;;;;;;;;;;6206776;28;20274;-62
2023/10/15 17:14:37;;;;;;;8.73;6.07;;;;;;;;;;6223837;28;20195;-62
2023/10/15 17:17:42;;;;;;;8.53;6.10;;;;;;;;;;6201071;28;20305;-62
2023/10/15 17:20:44;;;;;;;9.27;6.47;;;;;;;;;;6213186;28;20218;-62
2023/10/15 17:23:47;;;;;;;7.47;6.03;;;;;;;;;;6202650;28;20241;-62
2023/10/15 17:26:48;;;;;;;9.13;7.03;;;;;;;;;;6202286;28;20232;-62
2023/10/15 17:29:51;;;;;;;9.37;7.83;;;;;;;;;;6205865;28;20191;-63
2023/10/15 17:32:54;;;;;;;13.37;9.33;;;;;;;;;;6190844;28;20226;-64
2023/10/15 17:35:56;;;;;;;14.23;8.97;;;;;;;;;;6203205;28;20187;-64
2023/10/15 17:38:57;;;;;;;14.77;10.27;;;;;;;;;;6201697;28;20211;-62
2023/10/15 17:41:59;;;;;;;12.13;8.97;;;;;;;;;;6202115;28;20285;-63
2023/10/15 17:45:01;;;;;;;9.10;8.20;;;;;;;;;;6190332;28;20195;-67
2023/10/15 17:48:03;;;;;;;11.60;8.47;;;;;;;;;;6196417;28;20200;-67
2023/10/15 17:51:04;;;;;;;10.83;8.77;;;;;;;;;;6196776;28;20200;-65
2023/10/15 17:54:07;;;;;;;10.27;7.87;;;;;;;;;;6203927;28;20196;-64
2023/10/15 17:57:12;;;;;;;8.30;7.37;;;;;;;;;;6211329;28;20188;-62
2023/10/15 18:00:16;;;;;;;12.77;9.90;;;;;;;;;;6217642;28;20238;-65
2023/10/15 18:03:18;;;;;;;9.70;7.93;;;;;;;;;;6209421;28;20188;-65
2023/10/15 18:06:21;;;;;;;9.87;7.23;;;;;;;;;;6199956;28;20250;-64
2023/10/15 18:09:22;;;;;;;10.33;8.07;;;;;;;;;;6198605;28;20191;-64
2023/10/15 18:12:24;;;;;;;8.70;7.17;;;;;;;;;;6194347;28;20202;-64
2023/10/15 18:15:28;;;;;;;6.87;5.87;;;;;;;;;;6201665;28;20330;-64
2023/10/15 18:18:30;;;;;;;10.20;6.10;;;;;;;;;;6197486;28;20219;-64
2023/10/15 18:21:32;;;;;;;6.33;5.73;;;;;;;;;;6196143;28;20219;-66
2023/10/15 18:24:33;;;;;;;9.63;6.37;;;;;;;;;;6224783;28;20261;-65
2023/10/15 18:27:35;;;;;;;6.57;5.97;;;;;;;;;;6222048;28;20198;-63
2023/10/15 18:30:37;;;;;;;6.50;5.87;;;;;;;;;;6205710;28;20199;-65